createdAt,value
2018-12-16T00:00:47.862Z,0.30
2018-12-16T00:05:54.566Z,0.30
2018-12-16T00:10:59.338Z,0.40
2018-12-16T00:16:04.207Z,0.40
2018-12-16T00:21:08.982Z,0.40
2018-12-16T00:26:13.725Z,0.50
2018-12-16T00:31:18.512Z,0.50
2018-12-16T00:36:23.256Z,0.50
2018-12-16T00:41:27.975Z,0.50
2018-12-16T00:46:32.742Z,0.50
2018-12-16T00:51:38.428Z,0.50
2018-12-16T00:56:44.356Z,0.40
2018-12-16T01:01:49.197Z,0.50
2018-12-16T01:06:54.067Z,0.50
2018-12-16T01:11:58.833Z,0.60
2018-12-16T01:17:04.126Z,0.60
2018-12-16T01:22:08.848Z,0.50
2018-12-16T01:27:13.578Z,0.60
2018-12-16T01:32:18.480Z,0.60
2018-12-16T01:37:23.290Z,0.70
2018-12-16T01:42:28.217Z,0.60
2018-12-16T01:47:33.307Z,0.60
2018-12-16T01:52:38.157Z,0.70
2018-12-16T01:57:43.157Z,0.70
2018-12-16T02:02:47.884Z,0.70
2018-12-16T02:07:52.987Z,0.70
2018-12-16T02:12:57.752Z,0.70
2018-12-16T02:18:02.689Z,0.80
2018-12-16T02:23:07.670Z,0.80
2018-12-16T02:28:12.409Z,0.80
2018-12-16T02:33:17.435Z,0.80
2018-12-16T02:38:22.163Z,0.90
2018-12-16T02:43:27.226Z,0.90
2018-12-16T02:48:31.967Z,0.90
2018-12-16T02:53:37.022Z,0.90
2018-12-16T02:58:41.858Z,0.90
2018-12-16T03:03:46.976Z,0.90
2018-12-16T03:08:51.740Z,1.00
2018-12-16T03:13:56.857Z,1.00
2018-12-16T03:19:01.600Z,1.00
2018-12-16T03:24:06.585Z,1.00
2018-12-16T03:29:11.665Z,1.10
2018-12-16T03:34:16.812Z,1.10
2018-12-16T03:39:21.617Z,1.10
2018-12-16T03:44:26.362Z,1.10
2018-12-16T03:49:31.097Z,1.10
2018-12-16T03:54:36.319Z,1.10
2018-12-16T03:59:41.156Z,1.10
2018-12-16T04:04:46.564Z,1.20
2018-12-16T04:09:51.257Z,1.20
2018-12-16T04:14:56.290Z,1.20
2018-12-16T04:20:01.119Z,1.20
2018-12-16T04:25:06.305Z,1.30
2018-12-16T04:30:11.043Z,1.30
2018-12-16T04:35:16.303Z,1.30
2018-12-16T04:40:22.485Z,1.30
2018-12-16T04:45:27.487Z,1.30
2018-12-16T04:50:32.216Z,1.30
2018-12-16T04:55:37.230Z,1.40
2018-12-16T05:00:42.124Z,1.40
2018-12-16T05:05:47.129Z,1.40
2018-12-16T05:10:51.855Z,1.40
2018-12-16T05:15:58.978Z,1.50
2018-12-16T05:21:03.703Z,1.50
2018-12-16T05:26:08.422Z,1.50
2018-12-16T05:31:13.164Z,1.50
2018-12-16T05:36:17.864Z,1.60
2018-12-16T05:41:22.577Z,1.60
2018-12-16T05:46:27.330Z,1.60
2018-12-16T05:51:32.380Z,1.70
2018-12-16T05:56:37.167Z,1.70
2018-12-16T06:01:42.177Z,1.70
2018-12-16T06:06:47.022Z,1.70
2018-12-16T06:11:51.769Z,1.70
2018-12-16T06:16:56.594Z,1.60
2018-12-16T06:22:01.592Z,1.70
2018-12-16T06:27:06.442Z,1.70
2018-12-16T06:32:11.285Z,1.70
2018-12-16T06:37:16.062Z,1.70
2018-12-16T06:42:20.812Z,1.70
2018-12-16T06:47:25.678Z,1.80
2018-12-16T06:52:30.420Z,1.70
2018-12-16T06:57:35.142Z,1.70
2018-12-16T07:02:39.873Z,1.70
2018-12-16T07:07:44.622Z,1.70
2018-12-16T07:12:49.411Z,1.80
2018-12-16T07:17:54.299Z,1.80
2018-12-16T07:22:59.173Z,1.70
2018-12-16T07:28:04.166Z,1.80
2018-12-16T07:33:08.957Z,1.80
2018-12-16T07:38:13.766Z,1.90
2018-12-16T07:43:18.813Z,2.00
2018-12-16T07:48:23.902Z,2.00
2018-12-16T07:53:28.841Z,2.00
2018-12-16T07:58:33.915Z,2.00
2018-12-16T08:03:38.650Z,2.10
2018-12-16T08:08:43.421Z,2.10
2018-12-16T08:13:48.341Z,2.20
2018-12-16T08:18:53.164Z,2.20
2018-12-16T08:23:58.054Z,2.20
2018-12-16T08:29:03.043Z,2.20
2018-12-16T08:34:07.772Z,2.20
2018-12-16T08:39:12.505Z,2.20
2018-12-16T08:44:17.365Z,2.30
2018-12-16T08:49:22.178Z,2.30
2018-12-16T08:54:30.031Z,2.40
2018-12-16T08:59:33.625Z,2.50
2018-12-16T09:04:38.337Z,2.50
2018-12-16T09:09:43.399Z,2.60
2018-12-16T09:14:48.185Z,2.70
2018-12-16T09:19:52.918Z,2.70
2018-12-16T09:24:57.721Z,2.80
2018-12-16T09:30:02.536Z,2.80
2018-12-16T09:35:07.457Z,2.90
2018-12-16T09:40:12.196Z,3.00
2018-12-16T09:45:17.029Z,3.00
2018-12-16T09:50:21.825Z,3.10
2018-12-16T09:55:26.589Z,3.10
2018-12-16T10:00:31.399Z,3.20
2018-12-16T10:05:36.203Z,3.20
2018-12-16T10:10:40.957Z,3.20
2018-12-16T10:15:45.728Z,3.20
2018-12-16T10:20:50.479Z,3.30
2018-12-16T10:25:55.301Z,3.30
2018-12-16T10:31:00.087Z,3.30
2018-12-16T10:36:04.988Z,3.40
2018-12-16T10:41:10.039Z,3.40
2018-12-16T10:46:15.183Z,3.40
2018-12-16T10:51:20.070Z,3.40
2018-12-16T10:56:25.124Z,3.40
2018-12-16T11:01:29.917Z,3.50
2018-12-16T11:06:34.677Z,3.50
2018-12-16T11:11:39.544Z,3.60
2018-12-16T11:16:44.286Z,3.70
2018-12-16T11:21:49.115Z,3.70
2018-12-16T11:26:53.899Z,3.80
2018-12-16T11:31:58.948Z,3.80
2018-12-16T11:37:04.132Z,3.90
2018-12-16T11:42:09.014Z,3.90
2018-12-16T11:47:13.784Z,3.90
2018-12-16T11:52:18.577Z,3.90
2018-12-16T11:57:23.478Z,3.90
2018-12-16T12:02:32.855Z,4.00
2018-12-16T12:07:37.037Z,4.00
2018-12-16T12:12:42.201Z,4.00
2018-12-16T12:17:47.004Z,4.10
2018-12-16T12:22:51.802Z,4.10
2018-12-16T12:27:56.609Z,4.10
2018-12-16T12:33:01.308Z,4.10
2018-12-16T12:38:06.120Z,4.20
2018-12-16T12:43:10.975Z,4.10
2018-12-16T12:48:15.778Z,4.10
2018-12-16T12:53:21.014Z,4.10
2018-12-16T12:58:25.768Z,4.10
2018-12-16T13:03:30.818Z,4.20
2018-12-16T13:08:35.638Z,4.20
2018-12-16T13:13:40.460Z,4.20
2018-12-16T13:18:46.258Z,4.20
2018-12-16T13:23:51.016Z,4.20
2018-12-16T13:28:55.852Z,4.30
2018-12-16T13:34:03.223Z,4.30
2018-12-16T13:39:08.316Z,4.30
2018-12-16T13:44:15.534Z,4.30
2018-12-16T13:49:20.398Z,4.40
2018-12-16T13:54:25.222Z,4.40
2018-12-16T13:59:30.087Z,4.50
2018-12-16T14:04:34.884Z,4.40
2018-12-16T14:09:39.925Z,4.40
2018-12-16T14:14:45.229Z,4.40
2018-12-16T14:19:51.144Z,4.50
2018-12-16T14:24:56.059Z,4.40
2018-12-16T14:30:00.915Z,4.40
2018-12-16T14:35:06.389Z,4.40
2018-12-16T14:40:11.534Z,4.40
2018-12-16T14:45:16.433Z,4.50
2018-12-16T14:50:21.362Z,4.50
2018-12-16T14:55:26.289Z,4.50
2018-12-16T15:00:31.185Z,4.50
2018-12-16T15:05:35.979Z,4.50
2018-12-16T15:10:40.753Z,4.50
2018-12-16T15:15:45.665Z,4.50
2018-12-16T15:20:50.457Z,4.50
2018-12-16T15:26:01.873Z,4.50
2018-12-16T15:31:02.571Z,4.60
2018-12-16T15:36:07.828Z,4.60
2018-12-16T15:41:12.674Z,4.60
2018-12-16T15:46:17.552Z,4.60
2018-12-16T15:51:22.367Z,4.60
2018-12-16T15:56:27.331Z,4.70
2018-12-16T16:01:32.475Z,4.70
2018-12-16T16:06:38.463Z,4.80
2018-12-16T16:11:43.314Z,4.80
2018-12-16T16:16:48.136Z,4.80
2018-12-16T16:21:52.944Z,4.80
2018-12-16T16:26:57.786Z,4.80
2018-12-16T16:32:02.667Z,4.80
2018-12-16T16:37:07.875Z,4.90
2018-12-16T16:42:12.637Z,4.90
2018-12-16T16:47:17.410Z,4.90
2018-12-16T16:52:22.209Z,4.90
2018-12-16T16:57:27.049Z,4.90
2018-12-16T17:02:31.897Z,4.90
2018-12-16T17:07:37.213Z,4.80
2018-12-16T17:12:42.182Z,4.90
2018-12-16T17:17:46.958Z,4.80
2018-12-16T17:22:51.783Z,4.80
2018-12-16T17:27:56.811Z,4.80
2018-12-16T17:33:01.589Z,4.80
2018-12-16T17:38:06.816Z,4.90
2018-12-16T17:43:11.646Z,4.80
2018-12-16T17:48:16.405Z,4.90
2018-12-16T17:53:21.243Z,4.80
2018-12-16T17:58:26.278Z,4.80
2018-12-16T18:03:31.027Z,4.80
2018-12-16T18:08:35.882Z,4.80
2018-12-16T18:13:40.786Z,4.80
2018-12-16T18:18:45.542Z,4.80
2018-12-16T18:23:50.355Z,4.80
2018-12-16T18:28:55.222Z,4.80
2018-12-16T18:34:00.164Z,4.80
2018-12-16T18:39:08.428Z,4.70
2018-12-16T18:44:13.361Z,4.70
2018-12-16T18:49:18.111Z,4.80
2018-12-16T18:54:22.853Z,4.80
2018-12-16T18:59:27.644Z,4.80
2018-12-16T19:04:32.491Z,4.70
2018-12-16T19:09:37.368Z,4.60
2018-12-16T19:14:42.708Z,4.60
2018-12-16T19:19:47.569Z,4.60
2018-12-16T19:24:52.374Z,4.60
2018-12-16T19:29:57.216Z,4.50
2018-12-16T19:35:01.957Z,4.60
2018-12-16T19:40:07.162Z,4.60
2018-12-16T19:45:13.537Z,4.50
2018-12-16T19:50:18.321Z,4.60
2018-12-16T19:55:23.808Z,4.50
2018-12-16T20:00:28.629Z,4.50
2018-12-16T20:05:37.663Z,4.50
2018-12-16T20:10:42.524Z,4.60
2018-12-16T20:15:47.427Z,4.50
2018-12-16T20:20:52.221Z,4.50
2018-12-16T20:25:57.050Z,4.50
2018-12-16T20:31:01.920Z,4.50
2018-12-16T20:36:06.837Z,4.50
2018-12-16T20:41:11.790Z,4.50
2018-12-16T20:46:16.714Z,4.40
2018-12-16T20:51:21.657Z,4.40
2018-12-16T20:56:26.566Z,4.40
2018-12-16T21:01:31.515Z,4.40
2018-12-16T21:06:36.283Z,4.40
2018-12-16T21:11:46.530Z,4.40
2018-12-16T21:16:56.603Z,4.50
2018-12-16T21:22:01.473Z,4.40
2018-12-16T21:27:06.567Z,4.40
2018-12-16T21:32:11.455Z,4.40
2018-12-16T21:37:16.245Z,4.40
2018-12-16T21:42:21.085Z,4.40
2018-12-16T21:47:25.943Z,4.30
2018-12-16T21:52:30.720Z,4.30
2018-12-16T21:57:35.889Z,4.30
2018-12-16T22:02:40.645Z,4.50
2018-12-16T22:07:46.214Z,4.60
2018-12-16T22:12:51.264Z,4.70
2018-12-16T22:17:56.074Z,4.70
2018-12-16T22:23:00.950Z,4.80
2018-12-16T22:28:05.814Z,4.90
2018-12-16T22:33:10.594Z,4.90
2018-12-16T22:38:15.441Z,4.90
2018-12-16T22:43:20.294Z,4.70
2018-12-16T22:48:25.286Z,4.60
2018-12-16T22:53:30.094Z,4.50
2018-12-16T22:58:34.888Z,4.50
2018-12-16T23:03:39.758Z,4.50
2018-12-16T23:08:44.557Z,4.50
2018-12-16T23:13:49.417Z,4.50
2018-12-16T23:18:54.358Z,4.50
2018-12-16T23:23:59.224Z,4.40
2018-12-16T23:29:04.145Z,4.30
2018-12-16T23:34:09.050Z,4.40
2018-12-16T23:39:13.945Z,4.30
2018-12-16T23:44:18.781Z,4.30
2018-12-16T23:49:23.677Z,4.30
2018-12-16T23:54:28.535Z,4.30
2018-12-16T23:59:33.534Z,4.20
